createdAt,value
2022-12-12T00:01:51.025Z,22.03
2022-12-12T00:04:18.241Z,17.60
2022-12-12T00:06:45.513Z,20.50
2022-12-12T00:09:12.973Z,19.87
2022-12-12T00:11:40.974Z,21.37
2022-12-12T00:14:08.271Z,18.23
2022-12-12T00:16:35.152Z,19.10
2022-12-12T00:19:02.286Z,20.87
2022-12-12T00:21:29.961Z,17.30
2022-12-12T00:23:57.821Z,20.67
2022-12-12T00:26:29.852Z,19.50
2022-12-12T00:28:58.361Z,17.80
2022-12-12T00:31:25.512Z,18.48
2022-12-12T00:33:52.948Z,21.10
2022-12-12T00:36:23.804Z,18.97
2022-12-12T00:38:51.979Z,22.30
2022-12-12T00:41:19.532Z,20.63
2022-12-12T00:43:46.694Z,21.67
2022-12-12T00:46:16.427Z,18.83
2022-12-12T00:48:44.396Z,20.20
2022-12-12T00:51:16.745Z,20.53
2022-12-12T00:53:44.042Z,21.53
2022-12-12T00:56:10.866Z,21.13
2022-12-12T00:58:37.978Z,20.17
2022-12-12T01:01:13.582Z,19.93
2022-12-12T01:03:42.243Z,23.83
2022-12-12T01:06:10.553Z,19.50
2022-12-12T01:08:38.863Z,20.70
2022-12-12T01:11:06.514Z,19.40
2022-12-12T01:13:34.469Z,20.30
2022-12-12T01:16:01.649Z,16.43
2022-12-12T01:18:28.793Z,21.87
2022-12-12T01:20:55.549Z,20.10
2022-12-12T01:23:22.697Z,19.20
2022-12-12T01:25:49.459Z,18.77
2022-12-12T01:28:16.534Z,19.70
2022-12-12T01:30:43.486Z,17.90
2022-12-12T01:33:10.592Z,19.90
2022-12-12T01:35:37.406Z,18.27
2022-12-12T01:38:04.458Z,18.07
2022-12-12T01:40:31.765Z,19.00
2022-12-12T01:42:59.885Z,20.13
2022-12-12T01:45:58.007Z,19.43
2022-12-12T01:48:51.373Z,19.73
2022-12-12T01:51:21.311Z,20.53
2022-12-12T01:53:53.201Z,20.43
2022-12-12T01:56:21.679Z,19.97
2022-12-12T01:58:51.399Z,21.45
2022-12-12T02:01:19.632Z,20.70
2022-12-12T02:03:49.045Z,18.15
2022-12-12T02:06:20.341Z,20.07
2022-12-12T02:08:48.991Z,15.60
2022-12-12T02:11:15.897Z,20.60
2022-12-12T02:13:43.192Z,21.97
2022-12-12T02:16:45.290Z,23.47
2022-12-12T02:19:15.256Z,20.17
2022-12-12T02:22:04.746Z,17.93
2022-12-12T02:24:59.414Z,19.47
2022-12-12T02:27:40.893Z,18.33
2022-12-12T02:30:17.137Z,16.47
2022-12-12T02:33:06.997Z,17.83
2022-12-12T02:36:01.861Z,18.73
2022-12-12T02:38:40.308Z,18.53
2022-12-12T02:41:16.435Z,16.98
2022-12-12T02:43:58.243Z,17.20
2022-12-12T02:47:10.000Z,16.60
2022-12-12T02:49:47.881Z,21.13
2022-12-12T02:52:17.662Z,17.20
2022-12-12T02:54:44.799Z,16.83
2022-12-12T02:57:21.236Z,19.80
2022-12-12T03:03:32.596Z,16.27
2022-12-12T03:07:01.189Z,14.87
2022-12-12T03:09:57.128Z,16.40
2022-12-12T03:12:37.055Z,16.07
2022-12-12T03:15:35.876Z,17.07
2022-12-12T03:18:12.221Z,16.07
2022-12-12T03:20:57.681Z,15.77
2022-12-12T03:23:30.262Z,18.23
2022-12-12T03:26:21.834Z,16.17
2022-12-12T03:28:54.377Z,16.37
2022-12-12T03:31:28.563Z,12.70
2022-12-12T03:34:04.219Z,15.07
2022-12-12T03:37:01.293Z,15.33
2022-12-12T03:39:36.637Z,15.13
2022-12-12T03:42:13.008Z,14.50
2022-12-12T03:44:48.111Z,15.43
2022-12-12T03:47:23.601Z,14.87
2022-12-12T03:50:06.610Z,15.17
2022-12-12T03:52:48.044Z,16.10
2022-12-12T03:55:27.806Z,17.57
2022-12-12T03:58:06.209Z,12.13
2022-12-12T04:00:37.425Z,16.40
2022-12-12T04:03:33.083Z,15.50
2022-12-12T04:06:24.269Z,15.97
2022-12-12T04:09:10.457Z,15.63
2022-12-12T04:12:18.905Z,14.23
2022-12-12T04:14:59.007Z,13.75
2022-12-12T04:17:41.411Z,15.73
2022-12-12T04:20:45.461Z,13.77
2022-12-12T04:23:32.845Z,15.40
2022-12-12T04:26:40.828Z,14.17
2022-12-12T04:29:19.872Z,17.10
2022-12-12T04:32:03.567Z,11.82
2022-12-12T04:34:47.663Z,17.03
2022-12-12T04:37:20.401Z,14.47
2022-12-12T04:39:51.384Z,15.63
2022-12-12T04:42:22.617Z,13.47
2022-12-12T04:44:55.085Z,15.03
2022-12-12T04:47:23.979Z,14.77
2022-12-12T04:49:53.133Z,16.47
2022-12-12T04:54:50.504Z,12.80
2022-12-12T04:57:28.005Z,11.73
2022-12-12T04:59:55.465Z,12.43
2022-12-12T05:02:32.715Z,12.37
2022-12-12T05:05:26.405Z,13.60
2022-12-12T05:07:57.109Z,13.43
2022-12-12T05:10:24.252Z,15.47
2022-12-12T05:12:57.026Z,13.70
2022-12-12T05:15:25.100Z,17.13
2022-12-12T05:17:58.998Z,18.60
2022-12-12T05:20:26.201Z,15.73
2022-12-12T05:22:53.101Z,22.00
2022-12-12T05:25:20.269Z,16.23
2022-12-12T05:27:47.167Z,16.03
2022-12-12T05:30:14.600Z,19.40
2022-12-12T05:32:41.627Z,17.63
2022-12-12T05:35:09.525Z,18.87
2022-12-12T05:37:36.940Z,15.47
2022-12-12T05:40:05.761Z,16.07
2022-12-12T05:42:32.618Z,14.98
2022-12-12T05:44:59.774Z,17.77
2022-12-12T05:47:26.950Z,13.97
2022-12-12T05:49:54.306Z,13.77
2022-12-12T05:52:21.177Z,14.00
2022-12-12T05:54:48.783Z,12.73
2022-12-12T05:57:17.342Z,16.77
2022-12-12T05:59:45.603Z,17.58
2022-12-12T06:02:12.746Z,20.30
2022-12-12T06:04:40.414Z,21.03
2022-12-12T06:07:07.344Z,28.73
2022-12-12T06:09:34.507Z,19.47
2022-12-12T06:12:01.313Z,15.60
2022-12-12T06:14:28.515Z,16.83
2022-12-12T06:16:55.278Z,15.63
2022-12-12T06:19:22.426Z,12.20
2022-12-12T06:21:49.333Z,14.53
2022-12-12T06:24:16.656Z,13.67
2022-12-12T06:26:43.461Z,12.20
2022-12-12T06:29:10.681Z,14.00
2022-12-12T06:31:37.611Z,11.90
2022-12-12T06:34:04.728Z,13.47
2022-12-12T06:36:31.621Z,20.00
2022-12-12T06:39:00.512Z,22.90
2022-12-12T06:41:29.515Z,16.38
2022-12-12T06:43:57.159Z,14.93
2022-12-12T06:46:26.990Z,14.93
2022-12-12T06:48:56.002Z,14.37
2022-12-12T06:51:26.181Z,17.23
2022-12-12T06:53:53.615Z,15.53
2022-12-12T06:56:24.432Z,13.57
2022-12-12T06:58:52.504Z,13.80
2022-12-12T07:01:21.741Z,18.23
2022-12-12T07:03:50.432Z,17.90
2022-12-12T07:06:19.094Z,17.05
2022-12-12T07:11:19.881Z,11.53
2022-12-12T07:13:47.383Z,14.70
2022-12-12T07:16:14.790Z,11.43
2022-12-12T07:18:42.242Z,12.07
2022-12-12T07:21:11.817Z,13.33
2022-12-12T07:23:38.895Z,14.23
2022-12-12T07:26:09.373Z,12.37
2022-12-12T07:28:38.237Z,13.40
2022-12-12T07:31:10.619Z,15.40
2022-12-12T07:33:43.773Z,14.50
2022-12-12T07:36:13.174Z,17.77
2022-12-12T07:41:12.969Z,12.30
2022-12-12T07:43:44.249Z,14.13
2022-12-12T07:46:14.986Z,12.97
2022-12-12T07:48:42.541Z,11.00
2022-12-12T07:51:09.561Z,11.57
2022-12-12T07:53:36.750Z,12.33
2022-12-12T07:56:11.472Z,12.10
2022-12-12T07:58:39.032Z,11.83
2022-12-12T08:01:18.681Z,10.80
2022-12-12T08:03:47.121Z,10.20
2022-12-12T08:06:16.363Z,9.93
2022-12-12T08:08:44.122Z,9.33
2022-12-12T08:11:12.789Z,11.70
2022-12-12T08:13:41.084Z,14.20
2022-12-12T08:16:14.919Z,11.00
2022-12-12T08:18:42.268Z,10.17
2022-12-12T08:21:13.882Z,11.23
2022-12-12T08:23:41.999Z,11.80
2022-12-12T08:26:11.696Z,10.90
2022-12-12T08:28:41.465Z,13.20
2022-12-12T08:31:09.119Z,13.13
2022-12-12T08:33:36.440Z,12.80
2022-12-12T08:36:17.967Z,12.43
2022-12-12T08:38:45.712Z,12.60
2022-12-12T08:41:13.200Z,12.20
2022-12-12T08:43:41.885Z,13.23
2022-12-12T08:46:16.813Z,11.57
2022-12-12T08:48:45.685Z,11.23
2022-12-12T08:51:12.615Z,10.93
2022-12-12T08:53:39.818Z,9.97
2022-12-12T08:56:07.194Z,13.70
2022-12-12T08:58:35.392Z,10.93
2022-12-12T09:01:02.285Z,11.57
2022-12-12T09:03:29.977Z,11.23
2022-12-12T09:05:56.918Z,10.83
2022-12-12T09:08:24.597Z,11.20
2022-12-12T09:10:51.897Z,10.13
2022-12-12T09:13:20.072Z,11.90
2022-12-12T09:15:50.708Z,11.70
2022-12-12T09:18:19.319Z,10.07
2022-12-12T09:20:50.929Z,11.25
2022-12-12T09:23:18.637Z,12.13
2022-12-12T09:25:45.564Z,11.67
2022-12-12T09:28:14.858Z,12.17
2022-12-12T09:30:42.134Z,11.63
2022-12-12T09:33:09.645Z,10.03
2022-12-12T09:35:36.685Z,11.83
2022-12-12T09:38:08.228Z,11.57
2022-12-12T09:41:02.629Z,13.53
2022-12-12T09:43:46.422Z,9.73
2022-12-12T09:46:22.538Z,10.03
2022-12-12T09:48:49.761Z,11.87
2022-12-12T09:51:17.023Z,10.67
2022-12-12T09:53:46.545Z,10.73
2022-12-12T09:56:24.077Z,10.83
2022-12-12T09:59:18.741Z,11.27
2022-12-12T10:01:57.793Z,11.40
2022-12-12T10:04:33.373Z,11.93
2022-12-12T10:07:37.085Z,11.30
2022-12-12T10:10:04.300Z,11.53
2022-12-12T10:12:33.318Z,11.40
2022-12-12T10:15:05.156Z,12.80
2022-12-12T10:17:37.446Z,10.83
2022-12-12T10:20:14.416Z,8.73
2022-12-12T10:22:52.205Z,13.90
2022-12-12T10:25:44.281Z,10.50
2022-12-12T10:28:14.296Z,10.17
2022-12-12T10:31:10.697Z,9.60
2022-12-12T10:34:01.956Z,11.60
2022-12-12T10:36:44.395Z,10.23
2022-12-12T10:39:48.831Z,11.93
2022-12-12T10:42:24.965Z,10.77
2022-12-12T10:45:30.111Z,10.50
2022-12-12T10:47:57.401Z,10.77
2022-12-12T10:50:34.902Z,11.60
2022-12-12T10:53:05.377Z,11.40
2022-12-12T10:55:39.172Z,19.83
2022-12-12T10:58:07.806Z,17.77
2022-12-12T11:00:42.571Z,12.07
2022-12-12T11:03:26.697Z,13.70
2022-12-12T11:05:55.389Z,20.43
2022-12-12T11:08:26.985Z,21.67
2022-12-12T11:11:19.880Z,14.00
2022-12-12T11:13:56.434Z,23.73
2022-12-12T11:16:49.644Z,19.87
2022-12-12T11:19:25.376Z,16.60
2022-12-12T11:21:54.445Z,21.10
2022-12-12T11:24:24.490Z,16.47
2022-12-12T11:27:02.249Z,14.20
2022-12-12T11:29:46.865Z,14.13
2022-12-12T11:32:25.536Z,14.40
2022-12-12T11:37:36.017Z,15.70
2022-12-12T11:40:04.416Z,14.30
2022-12-12T11:42:34.100Z,15.27
2022-12-12T11:45:21.049Z,15.53
2022-12-12T11:47:48.470Z,15.67
2022-12-12T11:50:22.624Z,13.57
2022-12-12T11:52:52.002Z,15.37
2022-12-12T11:55:31.605Z,13.93
2022-12-12T11:58:16.446Z,15.13
2022-12-12T12:00:55.420Z,14.00
2022-12-12T12:03:33.940Z,16.27
2022-12-12T12:06:14.444Z,41.35
2022-12-12T12:08:44.084Z,15.87
2022-12-12T12:11:25.192Z,15.73
2022-12-12T12:14:20.154Z,14.27
2022-12-12T12:16:50.257Z,13.70
2022-12-12T12:19:28.841Z,15.53
2022-12-12T12:22:14.355Z,13.20
2022-12-12T12:25:02.217Z,14.53
2022-12-12T12:27:35.946Z,13.57
2022-12-12T12:30:11.811Z,14.63
2022-12-12T12:32:53.206Z,14.43
2022-12-12T12:35:29.962Z,13.07
2022-12-12T12:38:15.432Z,15.97
2022-12-12T12:40:58.621Z,15.77
2022-12-12T12:44:06.079Z,16.20
2022-12-12T12:47:10.845Z,16.77
2022-12-12T12:49:56.522Z,14.00
2022-12-12T12:52:45.199Z,16.40
2022-12-12T12:55:18.214Z,16.30
2022-12-12T12:57:48.511Z,22.07
2022-12-12T13:00:17.464Z,17.00
2022-12-12T13:02:44.393Z,18.92
2022-12-12T13:05:46.551Z,18.03
2022-12-12T13:08:24.749Z,18.17
2022-12-12T13:10:57.942Z,15.48
2022-12-12T13:13:29.688Z,17.53
2022-12-12T13:16:02.153Z,21.37
2022-12-12T13:18:44.602Z,18.97
2022-12-12T13:21:30.363Z,18.87
2022-12-12T13:24:16.041Z,20.03
2022-12-12T13:26:57.193Z,17.70
2022-12-12T13:29:45.213Z,17.13
2022-12-12T13:32:18.088Z,16.20
2022-12-12T13:34:49.206Z,21.77
2022-12-12T13:37:20.062Z,18.70
2022-12-12T13:39:56.942Z,20.77
2022-12-12T13:42:24.287Z,14.40
2022-12-12T13:44:51.679Z,17.53
2022-12-12T13:47:21.778Z,21.50
2022-12-12T13:49:56.333Z,19.90
2022-12-12T13:52:26.657Z,19.27
2022-12-12T13:55:19.106Z,22.27
2022-12-12T13:58:01.596Z,20.63
2022-12-12T14:00:35.698Z,24.20
2022-12-12T14:03:12.453Z,21.70
2022-12-12T14:05:45.189Z,21.30
2022-12-12T14:08:12.322Z,19.03
2022-12-12T14:10:45.276Z,17.37
2022-12-12T14:13:21.517Z,17.07
2022-12-12T14:16:03.331Z,18.33
2022-12-12T14:18:35.980Z,22.87
2022-12-12T14:21:14.454Z,21.23
2022-12-12T14:23:44.028Z,15.93
2022-12-12T14:26:29.506Z,26.57
2022-12-12T14:29:18.226Z,18.57
2022-12-12T14:31:56.189Z,34.53
2022-12-12T14:34:59.163Z,18.38
2022-12-12T14:37:31.970Z,16.93
2022-12-12T14:40:27.646Z,19.50
2022-12-12T14:43:23.002Z,20.20
2022-12-12T14:45:50.424Z,21.00
2022-12-12T14:48:17.300Z,24.23
2022-12-12T14:50:59.914Z,22.60
2022-12-12T14:53:52.634Z,23.03
2022-12-12T14:56:39.649Z,17.00
2022-12-12T14:59:18.148Z,20.07
2022-12-12T15:01:49.039Z,18.77
2022-12-12T15:04:22.692Z,21.73
2022-12-12T15:06:54.534Z,18.40
2022-12-12T15:09:37.524Z,21.03
2022-12-12T15:12:10.708Z,20.63
2022-12-12T15:14:40.198Z,27.07
2022-12-12T15:17:25.735Z,23.27
2022-12-12T15:19:57.573Z,20.27
2022-12-12T15:22:31.030Z,23.47
2022-12-12T15:25:00.331Z,26.73
2022-12-12T15:27:39.971Z,24.93
2022-12-12T15:30:39.590Z,21.80
2022-12-12T15:33:17.866Z,25.17
2022-12-12T15:36:02.106Z,19.08
2022-12-12T15:38:31.517Z,20.37
2022-12-12T15:41:01.482Z,24.37
2022-12-12T15:43:30.996Z,24.70
2022-12-12T15:46:06.943Z,25.63
2022-12-12T15:48:34.570Z,25.17
2022-12-12T15:51:06.694Z,26.30
2022-12-12T15:53:39.563Z,24.67
2022-12-12T15:56:13.304Z,28.90
2022-12-12T15:58:46.394Z,19.80
2022-12-12T16:01:20.922Z,18.83
2022-12-12T16:04:00.800Z,29.70
2022-12-12T16:06:34.051Z,36.35
2022-12-12T16:09:07.404Z,29.63
2022-12-12T16:12:06.640Z,26.90
2022-12-12T16:14:42.733Z,28.03
2022-12-12T16:17:17.975Z,24.70
2022-12-12T16:19:55.693Z,28.23
2022-12-12T16:22:31.975Z,21.83
2022-12-12T16:25:24.265Z,28.33
2022-12-12T16:28:07.654Z,21.10
2022-12-12T16:30:36.312Z,21.20
2022-12-12T16:33:28.161Z,16.90
2022-12-12T16:35:56.032Z,23.57
2022-12-12T16:38:23.742Z,16.93
2022-12-12T16:40:54.601Z,18.90
2022-12-12T16:43:23.880Z,19.97
2022-12-12T16:45:54.296Z,19.50
2022-12-12T16:48:26.812Z,27.33
2022-12-12T16:51:00.680Z,19.50
2022-12-12T16:53:27.633Z,23.87
2022-12-12T16:55:54.997Z,24.00
2022-12-12T16:58:22.217Z,19.80
2022-12-12T17:00:52.875Z,30.93
2022-12-12T17:03:21.730Z,24.27
2022-12-12T17:08:17.216Z,17.57
2022-12-12T17:10:46.572Z,33.83
2022-12-12T17:15:43.462Z,19.67
2022-12-12T17:18:10.251Z,18.87
2022-12-12T17:20:38.285Z,14.47
2022-12-12T17:25:54.692Z,22.67
2022-12-12T17:28:25.915Z,25.30
2022-12-12T17:30:53.792Z,26.90
2022-12-12T17:33:20.646Z,25.13
2022-12-12T17:36:01.130Z,23.37
2022-12-12T17:38:28.074Z,24.37
2022-12-12T17:40:56.903Z,24.67
2022-12-12T17:43:26.631Z,34.92
2022-12-12T17:46:01.633Z,25.60
2022-12-12T17:48:30.648Z,22.20
2022-12-12T17:51:02.826Z,24.73
2022-12-12T17:53:32.476Z,25.43
2022-12-12T17:56:01.822Z,24.00
2022-12-12T17:58:40.258Z,25.77
2022-12-12T18:01:14.694Z,21.37
2022-12-12T18:03:43.107Z,21.47
2022-12-12T18:06:11.086Z,20.75
2022-12-12T18:08:38.467Z,19.93
2022-12-12T18:11:09.921Z,21.47
2022-12-12T18:13:38.918Z,26.40
2022-12-12T18:16:07.867Z,18.20
2022-12-12T18:18:35.308Z,24.33
2022-12-12T18:21:10.594Z,31.83
2022-12-12T18:23:39.872Z,38.27
2022-12-12T18:26:14.883Z,19.57
2022-12-12T18:28:45.456Z,25.35
2022-12-12T18:31:14.642Z,22.77
2022-12-12T18:36:15.199Z,19.53
2022-12-12T18:38:47.447Z,32.93
2022-12-12T18:41:16.138Z,28.27
2022-12-12T18:43:43.292Z,23.02
2022-12-12T18:46:19.374Z,19.47
2022-12-12T18:48:47.829Z,25.10
2022-12-12T18:51:20.481Z,30.35
2022-12-12T18:53:47.333Z,29.07
2022-12-12T18:56:17.724Z,20.30
2022-12-12T18:58:44.744Z,22.90
2022-12-12T19:01:16.190Z,20.07
2022-12-12T19:03:44.706Z,16.57
2022-12-12T19:06:14.986Z,18.23
2022-12-12T19:08:42.435Z,19.93
2022-12-12T19:11:10.558Z,21.97
2022-12-12T19:13:38.148Z,18.10
2022-12-12T19:16:13.509Z,22.47
2022-12-12T19:18:41.310Z,24.40
2022-12-12T19:21:17.408Z,24.27
2022-12-12T19:23:45.250Z,21.33
2022-12-12T19:26:15.311Z,24.00
2022-12-12T19:28:42.262Z,22.80
2022-12-12T19:31:15.829Z,21.27
2022-12-12T19:33:44.124Z,20.20
2022-12-12T19:36:17.494Z,26.67
2022-12-12T19:38:45.238Z,22.60
2022-12-12T19:41:14.283Z,26.50
2022-12-12T19:43:42.910Z,17.35
2022-12-12T19:46:13.591Z,21.77
2022-12-12T19:48:40.500Z,27.53
2022-12-12T19:51:12.492Z,29.37
2022-12-12T19:53:41.896Z,25.27
2022-12-12T19:56:12.256Z,26.47
2022-12-12T19:58:39.989Z,28.97
2022-12-12T20:01:08.876Z,26.17
2022-12-12T20:03:36.210Z,21.95
2022-12-12T20:06:05.994Z,27.27
2022-12-12T20:08:34.645Z,27.33
2022-12-12T20:13:31.895Z,24.60
2022-12-12T20:16:08.610Z,21.70
2022-12-12T20:18:35.772Z,27.07
2022-12-12T20:21:04.474Z,25.37
2022-12-12T20:23:42.347Z,16.15
2022-12-12T20:26:15.993Z,24.10
2022-12-12T20:28:42.978Z,23.80
2022-12-12T20:31:16.793Z,21.50
2022-12-12T20:33:44.449Z,21.73
2022-12-12T20:36:14.183Z,26.53
2022-12-12T20:38:41.145Z,19.47
2022-12-12T20:41:22.585Z,18.73
2022-12-12T20:43:50.085Z,19.97
2022-12-12T20:46:35.245Z,21.60
2022-12-12T20:49:05.345Z,23.83
2022-12-12T20:54:22.284Z,22.57
2022-12-12T20:56:50.094Z,22.63
2022-12-12T20:59:17.038Z,23.43
2022-12-12T21:01:44.209Z,21.20
2022-12-12T21:04:11.271Z,22.63
2022-12-12T21:06:43.198Z,21.37
2022-12-12T21:09:11.704Z,20.00
2022-12-12T21:14:07.227Z,20.53
2022-12-12T21:16:37.658Z,20.13
2022-12-12T21:19:07.911Z,26.57
2022-12-12T21:21:35.093Z,19.33
2022-12-12T21:24:02.014Z,24.20
2022-12-12T21:26:31.400Z,23.67
2022-12-12T21:29:00.320Z,25.17
2022-12-12T21:31:36.438Z,27.73
2022-12-12T21:34:05.282Z,21.37
2022-12-12T21:36:32.979Z,20.37
2022-12-12T21:39:01.551Z,21.50
2022-12-12T21:43:56.846Z,17.70
2022-12-12T21:46:25.758Z,19.88
2022-12-12T21:49:12.293Z,21.92
2022-12-12T21:51:41.386Z,21.80
2022-12-12T21:54:10.498Z,24.48
2022-12-12T21:56:37.653Z,27.53
2022-12-12T21:59:05.135Z,23.53
2022-12-12T22:01:33.137Z,22.70
2022-12-12T22:04:01.180Z,23.43
2022-12-12T22:06:31.334Z,22.75
2022-12-12T22:09:00.359Z,26.73
2022-12-12T22:11:41.939Z,23.87
2022-12-12T22:14:16.705Z,19.40
2022-12-12T22:16:43.954Z,24.83
2022-12-12T22:19:12.952Z,22.80
2022-12-12T22:21:40.464Z,21.00
2022-12-12T22:24:07.620Z,21.87
2022-12-12T22:26:41.121Z,19.50
2022-12-12T22:29:13.629Z,22.77
2022-12-12T22:31:41.721Z,21.03
2022-12-12T22:34:16.798Z,20.00
2022-12-12T22:36:44.933Z,19.30
2022-12-12T22:39:18.259Z,21.23
2022-12-12T22:41:46.294Z,23.17
2022-12-12T22:44:18.535Z,18.13
2022-12-12T22:46:47.299Z,21.57
2022-12-12T22:49:16.098Z,21.63
2022-12-12T22:54:09.970Z,21.00
2022-12-12T22:56:38.757Z,24.03
2022-12-12T22:59:06.894Z,20.38
2022-12-12T23:01:34.743Z,23.98
2022-12-12T23:04:01.735Z,22.20
2022-12-12T23:06:31.337Z,19.57
2022-12-12T23:09:01.165Z,21.57
2022-12-12T23:11:30.548Z,23.43
2022-12-12T23:16:30.896Z,26.10
2022-12-12T23:18:58.721Z,23.48
2022-12-12T23:21:26.329Z,22.83
2022-12-12T23:23:55.085Z,20.17
2022-12-12T23:26:25.986Z,22.67
2022-12-12T23:28:53.220Z,21.60
2022-12-12T23:31:26.692Z,30.43
2022-12-12T23:33:55.689Z,25.27
2022-12-12T23:36:23.601Z,28.13
2022-12-12T23:38:57.784Z,24.37
2022-12-12T23:41:25.558Z,23.27
2022-12-12T23:43:52.949Z,24.60
2022-12-12T23:46:31.457Z,21.10
2022-12-12T23:49:01.572Z,17.02
2022-12-12T23:51:31.369Z,18.97
2022-12-12T23:53:59.468Z,24.83
2022-12-12T23:56:26.984Z,23.63
2022-12-12T23:58:57.828Z,22.27
